Time;durP1;ratioP1;P1;durP2;ratioP2;P2;SDS_P1;SDS_P2;PMS_P1;PMS_P2;Temp;Humidity;BMP_temperature;BMP_pressure;BME280_temperature;BME280_humidity;BME280_pressure;Samples;Min_cycle;Max_cycle;Signal;HPM_P1;HPM_P2
2021/09/08 00:01:03;;;;;;;9.82;5.90;;;436.00;2355.20;;;;;;5009155;28;20060;-85
2021/09/08 00:03:29;;;;;;;9.68;6.53;;;435.90;2355.20;;;;;;5013617;28;20030;-85
2021/09/08 00:05:55;;;;;;;7.50;5.80;;;435.90;2355.20;;;;;;5013965;28;20080;-85
2021/09/08 00:08:21;;;;;;;9.48;6.47;;;435.90;2355.20;;;;;;5013626;28;20111;-84
2021/09/08 00:10:47;;;;;;;9.43;6.07;;;435.90;2355.20;;;;;;5013240;28;20030;-84
2021/09/08 00:13:13;;;;;;;10.30;6.05;;;435.90;2355.20;;;;;;5016614;28;20658;-84
2021/09/08 00:15:38;;;;;;;9.32;6.00;;;435.80;2355.20;;;;;;5012759;28;20030;-84
2021/09/08 00:18:04;;;;;;;8.68;5.88;;;435.80;2355.20;;;;;;5007380;28;20076;-84
2021/09/08 00:20:31;;;;;;;9.38;5.70;;;435.70;2355.20;;;;;;5012526;28;20077;-84
2021/09/08 00:22:57;;;;;;;9.80;5.93;;;435.70;2355.20;;;;;;4993911;28;20882;-85
2021/09/08 00:25:22;;;;;;;19.23;6.68;;;435.70;2355.20;;;;;;5008240;28;20165;-84
2021/09/08 00:27:48;;;;;;;8.73;5.15;;;435.70;2355.20;;;;;;5006179;28;20038;-85
2021/09/08 00:30:14;;;;;;;8.55;6.13;;;435.70;2355.20;;;;;;4992167;28;20120;-84
2021/09/08 00:32:41;;;;;;;10.35;5.80;;;435.70;2355.20;;;;;;5008856;28;20397;-84
2021/09/08 00:35:07;;;;;;;9.48;6.13;;;435.70;2355.20;;;;;;5015761;28;20036;-85
2021/09/08 00:37:35;;;;;;;7.10;5.40;;;435.70;2355.20;;;;;;5012227;28;20022;-85
2021/09/08 00:40:01;;;;;;;9.93;7.00;;;435.70;2355.20;;;;;;5014174;28;20092;-85
2021/09/08 00:42:26;;;;;;;9.60;6.18;;;435.60;2355.20;;;;;;5012212;28;20034;-85
2021/09/08 00:44:52;;;;;;;9.07;5.75;;;435.50;2355.20;;;;;;5011597;28;20037;-84
2021/09/08 00:47:18;;;;;;;9.73;5.55;;;435.40;2355.20;;;;;;5011286;28;20033;-85
2021/09/08 00:49:46;;;;;;;9.27;6.05;;;435.50;2355.20;;;;;;5011751;28;20036;-85
2021/09/08 00:52:13;;;;;;;9.38;6.32;;;435.50;2355.20;;;;;;5011676;28;20112;-86
2021/09/08 00:54:40;;;;;;;10.02;6.25;;;435.50;2355.20;;;;;;4998428;28;20400;-85
2021/09/08 00:57:08;;;;;;;9.43;6.38;;;435.40;2355.20;;;;;;5011744;28;20025;-85
2021/09/08 00:59:34;;;;;;;8.65;6.10;;;435.40;2355.20;;;;;;5000014;28;20551;-85
2021/09/08 01:02:04;;;;;;;7.68;5.93;;;435.40;2355.20;;;;;;5013166;28;20058;-88
2021/09/08 01:04:31;;;;;;;10.40;6.38;;;435.40;2355.20;;;;;;5001255;28;20038;-88
2021/09/08 01:07:04;;;;;;;10.80;6.53;;;435.30;2355.20;;;;;;5026399;28;20036;-89
2021/09/08 01:09:31;;;;;;;8.95;6.18;;;435.20;2355.20;;;;;;5000313;28;20037;-88
2021/09/08 01:11:57;;;;;;;9.20;6.75;;;435.20;2355.20;;;;;;4999752;28;20046;-86
2021/09/08 01:14:23;;;;;;;12.20;6.47;;;435.20;2355.20;;;;;;5010842;28;20056;-88
2021/09/08 01:16:51;;;;;;;7.88;6.35;;;435.20;2355.20;;;;;;5013369;28;20029;-88
2021/09/08 01:19:17;;;;;;;11.57;6.50;;;435.20;2355.20;;;;;;5008515;28;20030;-89
2021/09/08 01:21:43;;;;;;;11.13;6.35;;;410.50;2355.20;;;;;;5017750;28;20121;-86
2021/09/08 01:24:09;;;;;;;8.80;6.13;;;410.50;2355.20;;;;;;5010241;28;20112;-86
2021/09/08 01:26:35;;;;;;;8.50;6.35;;;410.50;2355.20;;;;;;5016144;28;20033;-86
2021/09/08 01:29:02;;;;;;;8.30;6.28;;;410.50;2355.20;;;;;;5001512;28;20493;-86
2021/09/08 01:31:27;;;;;;;13.48;7.63;;;410.40;2355.20;;;;;;5016303;28;20069;-86
2021/09/08 01:33:54;;;;;;;13.45;7.07;;;410.20;2355.20;;;;;;5015339;28;20054;-86
2021/09/08 01:36:20;;;;;;;11.93;7.05;;;410.20;2355.20;;;;;;5016128;28;20464;-85
2021/09/08 01:38:45;;;;;;;8.95;6.80;;;410.10;2355.20;;;;;;5015335;28;20037;-85
2021/09/08 01:41:11;;;;;;;10.38;6.88;;;410.10;2355.20;;;;;;5001127;28;20117;-85
2021/09/08 01:43:37;;;;;;;9.27;6.40;;;410.10;2355.20;;;;;;5016660;28;20110;-85
2021/09/08 01:46:03;;;;;;;9.48;6.88;;;410.10;2355.20;;;;;;5014954;28;20026;-85
2021/09/08 01:48:29;;;;;;;10.10;7.97;;;410.10;2355.20;;;;;;5015157;28;20034;-85
2021/09/08 01:50:55;;;;;;;10.63;8.20;;;410.10;2355.20;;;;;;5014180;28;20042;-85
2021/09/08 01:53:22;;;;;;;12.30;7.20;;;410.00;2355.20;;;;;;5014793;28;20061;-85
2021/09/08 01:55:49;;;;;;;10.80;7.07;;;410.00;2355.20;;;;;;5014684;28;20030;-85
2021/09/08 01:58:16;;;;;;;9.65;7.22;;;410.00;2355.20;;;;;;5014896;28;20469;-84
2021/09/08 02:00:42;;;;;;;13.90;7.95;;;410.00;2355.20;;;;;;4995272;28;20050;-86
2021/09/08 02:03:09;;;;;;;11.40;8.32;;;409.80;2355.20;;;;;;4995403;28;20026;-86
2021/09/08 02:05:35;;;;;;;12.02;7.40;;;409.70;2355.20;;;;;;5009683;28;20030;-86
2021/09/08 02:08:02;;;;;;;9.15;7.15;;;409.70;2355.20;;;;;;5007337;28;20030;-87
2021/09/08 02:10:27;;;;;;;10.13;7.75;;;409.60;2355.20;;;;;;5001207;28;20065;-86
2021/09/08 02:12:53;;;;;;;11.23;7.38;;;409.70;2355.20;;;;;;5014891;28;20018;-86
2021/09/08 02:15:19;;;;;;;8.65;6.95;;;409.60;2355.20;;;;;;5002372;28;20113;-87
2021/09/08 02:17:45;;;;;;;12.02;7.47;;;409.60;2355.20;;;;;;5014470;28;20026;-86
2021/09/08 02:20:11;;;;;;;9.45;6.97;;;384.90;2329.60;;;;;;5014983;28;20747;-87
2021/09/08 02:22:37;;;;;;;9.95;7.00;;;384.90;2329.60;;;;;;5014397;28;20041;-87
2021/09/08 02:25:04;;;;;;;9.30;6.70;;;409.60;2355.20;;;;;;5014297;28;20026;-86
2021/09/08 02:27:30;;;;;;;8.40;6.68;;;409.60;2355.20;;;;;;5015750;28;20022;-84
2021/09/08 02:29:56;;;;;;;11.27;6.30;;;409.60;2355.20;;;;;;5014154;28;20468;-86
2021/09/08 02:32:21;;;;;;;12.57;7.80;;;409.60;2355.20;;;;;;5014716;28;20424;-86
2021/09/08 02:34:47;;;;;;;11.80;6.88;;;409.60;2355.20;;;;;;5014294;28;20056;-88
2021/09/08 02:37:13;;;;;;;8.77;6.47;;;384.90;2329.60;;;;;;5014657;28;20109;-86
2021/09/08 02:39:42;;;;;;;8.55;6.80;;;384.90;2329.60;;;;;;5012942;28;20030;-87
2021/09/08 02:42:08;;;;;;;14.05;7.65;;;384.90;2329.60;;;;;;5014647;28;20164;-86
2021/09/08 02:44:34;;;;;;;10.23;6.88;;;384.90;2329.60;;;;;;4998722;28;20506;-87
2021/09/08 02:46:59;;;;;;;9.13;7.00;;;384.90;2329.60;;;;;;4995609;28;20056;-85
2021/09/08 02:49:25;;;;;;;10.68;7.50;;;384.90;2329.60;;;;;;4994813;28;20030;-84
2021/09/08 02:51:51;;;;;;;12.95;8.13;;;384.80;2329.60;;;;;;5027366;28;20405;-84
2021/09/08 02:54:17;;;;;;;8.15;6.40;;;384.80;2329.60;;;;;;5013780;28;20033;-84
2021/09/08 02:56:43;;;;;;;11.07;7.55;;;384.80;2329.60;;;;;;5006294;28;20031;-84
2021/09/08 02:59:08;;;;;;;16.83;7.38;;;384.90;2329.60;;;;;;5013385;28;20021;-82
2021/09/08 03:01:34;;;;;;;12.20;7.90;;;384.90;2329.60;;;;;;5000897;28;20069;-83
2021/09/08 03:04:00;;;;;;;11.00;7.28;;;384.90;2329.60;;;;;;5021551;28;20026;-85
2021/09/08 03:06:25;;;;;;;11.95;7.68;;;384.90;2329.60;;;;;;5012969;28;20034;-85
2021/09/08 03:08:51;;;;;;;9.50;7.40;;;384.90;2329.60;;;;;;5000949;28;20477;-89
2021/09/08 03:11:17;;;;;;;9.75;7.10;;;384.90;2329.60;;;;;;5019424;28;20060;-86
2021/09/08 03:13:43;;;;;;;9.82;7.93;;;384.90;2329.60;;;;;;5008664;28;20022;-87
2021/09/08 03:16:08;;;;;;;9.00;7.60;;;384.80;2329.60;;;;;;5017647;28;20038;-87
2021/09/08 03:18:34;;;;;;;12.60;7.55;;;384.80;2329.60;;;;;;5035512;28;20018;-86
2021/09/08 03:21:00;;;;;;;10.55;7.32;;;384.90;2329.60;;;;;;5010658;28;20026;-86
2021/09/08 03:23:26;;;;;;;8.38;6.28;;;409.60;2355.20;;;;;;5006923;28;20030;-89
2021/09/08 03:25:51;;;;;;;11.38;7.55;;;384.90;2329.60;;;;;;5010452;28;20027;-88
2021/09/08 03:28:17;;;;;;;11.18;7.22;;;384.90;2329.60;;;;;;5020974;28;20056;-87
2021/09/08 03:30:43;;;;;;;9.60;7.05;;;384.70;2329.60;;;;;;5015666;28;20403;-83
2021/09/08 03:33:09;;;;;;;9.20;6.85;;;384.70;2329.60;;;;;;5017726;28;20032;-82
2021/09/08 03:35:34;;;;;;;12.00;7.25;;;384.80;2329.60;;;;;;4999770;28;20040;-83
2021/09/08 03:38:00;;;;;;;11.90;8.80;;;384.90;2329.60;;;;;;5004383;28;20402;-84
2021/09/08 03:40:26;;;;;;;10.52;7.57;;;384.90;2329.60;;;;;;5009611;28;20022;-84
2021/09/08 03:42:52;;;;;;;10.30;7.90;;;384.90;2329.60;;;;;;5002408;28;20034;-82
2021/09/08 03:45:17;;;;;;;13.18;8.63;;;384.90;2329.60;;;;;;5007554;28;20536;-84
2021/09/08 03:47:43;;;;;;;11.73;8.02;;;384.90;2329.60;;;;;;5009674;28;20033;-84
2021/09/08 03:50:10;;;;;;;13.95;8.13;;;384.90;2329.60;;;;;;5030725;28;20034;-82
2021/09/08 03:52:36;;;;;;;9.93;7.57;;;384.90;2329.60;;;;;;5010494;28;20026;-84
2021/09/08 03:55:02;;;;;;;14.80;7.25;;;384.90;2329.60;;;;;;5019593;28;20021;-86
2021/09/08 03:57:28;;;;;;;11.25;7.43;;;384.90;2329.60;;;;;;5006390;28;20436;-85
2021/09/08 03:59:53;;;;;;;13.75;7.75;;;384.80;2329.60;;;;;;5017588;28;20050;-84
2021/09/08 04:02:19;;;;;;;9.90;7.90;;;384.80;2329.60;;;;;;5009460;28;20558;-86
2021/09/08 04:04:45;;;;;;;10.25;7.72;;;384.70;2329.60;;;;;;5001132;28;20034;-86
2021/09/08 04:07:10;;;;;;;14.80;8.32;;;384.70;2329.60;;;;;;5000486;28;20110;-86
2021/09/08 04:09:36;;;;;;;11.02;7.45;;;384.80;2329.60;;;;;;5012480;28;20030;-86
2021/09/08 04:12:02;;;;;;;17.30;7.47;;;384.80;2329.60;;;;;;5012777;28;20032;-87
2021/09/08 04:14:28;;;;;;;17.63;7.53;;;384.80;2329.60;;;;;;4993019;28;20081;-85
2021/09/08 04:16:53;;;;;;;10.30;7.85;;;384.70;2329.60;;;;;;5020158;28;20544;-84
2021/09/08 04:19:20;;;;;;;11.93;7.10;;;384.70;2329.60;;;;;;5008964;28;20366;-85
2021/09/08 04:21:46;;;;;;;9.65;7.18;;;384.70;2329.60;;;;;;5018646;28;20029;-85
2021/09/08 04:24:12;;;;;;;17.73;8.07;;;384.70;2329.60;;;;;;5010635;28;20030;-85
2021/09/08 04:26:37;;;;;;;13.48;7.30;;;384.70;2329.60;;;;;;5013083;28;20512;-85
2021/09/08 04:29:03;;;;;;;11.20;7.22;;;384.70;2329.60;;;;;;5006516;28;20084;-85
2021/09/08 04:31:29;;;;;;;9.77;7.50;;;384.80;2329.60;;;;;;5005566;28;20065;-86
2021/09/08 04:33:54;;;;;;;9.18;7.03;;;384.70;2329.60;;;;;;5003385;28;20033;-85
2021/09/08 04:36:20;;;;;;;9.68;7.28;;;384.80;2329.60;;;;;;5009327;28;20840;-85
2021/09/08 04:38:46;;;;;;;10.57;7.53;;;384.90;2329.60;;;;;;5018993;28;20393;-85
2021/09/08 04:41:15;;;;;;;11.65;7.85;;;384.90;2329.60;;;;;;5004492;28;20030;-85
2021/09/08 04:43:41;;;;;;;10.55;7.20;;;384.90;2329.60;;;;;;5007280;28;20022;-85
2021/09/08 04:46:07;;;;;;;21.67;7.00;;;384.90;2329.60;;;;;;5006577;28;20103;-85
2021/09/08 04:48:33;;;;;;;11.75;7.07;;;384.90;2329.60;;;;;;5006933;28;20135;-85
2021/09/08 04:50:59;;;;;;;8.90;6.97;;;409.60;2355.20;;;;;;5017601;28;20489;-85
2021/09/08 04:53:25;;;;;;;11.80;6.63;;;409.70;2355.20;;;;;;5011213;28;20508;-85
2021/09/08 04:55:51;;;;;;;11.57;6.63;;;409.80;2355.20;;;;;;5003097;28;20030;-88
2021/09/08 04:58:16;;;;;;;13.38;7.22;;;409.80;2355.20;;;;;;5006917;28;20507;-86
2021/09/08 05:00:42;;;;;;;10.10;7.65;;;409.90;2355.20;;;;;;5004947;28;20070;-87
2021/09/08 05:03:08;;;;;;;11.18;6.88;;;410.00;2355.20;;;;;;5008901;28;20472;-87
2021/09/08 05:05:33;;;;;;;12.73;6.60;;;410.10;2355.20;;;;;;5010135;28;20030;-86
2021/09/08 05:07:59;;;;;;;10.43;6.75;;;410.10;2355.20;;;;;;5024128;28;20022;-87
2021/09/08 05:10:25;;;;;;;9.23;7.05;;;410.20;2355.20;;;;;;5017550;28;20050;-83
2021/09/08 05:12:50;;;;;;;11.38;7.88;;;410.30;2355.20;;;;;;5012991;28;20021;-86
2021/09/08 05:15:17;;;;;;;11.90;7.28;;;410.40;2355.20;;;;;;5005734;28;20061;-87
2021/09/08 05:17:43;;;;;;;12.73;7.95;;;410.40;2355.20;;;;;;5006102;28;20022;-85
2021/09/08 05:20:09;;;;;;;16.63;7.60;;;410.50;2355.20;;;;;;5008418;28;20054;-86
2021/09/08 05:22:35;;;;;;;19.83;8.65;;;435.20;2355.20;;;;;;5010529;28;20026;-86
2021/09/08 05:25:01;;;;;;;14.88;8.82;;;435.40;2355.20;;;;;;5008012;28;20081;-86
2021/09/08 05:27:26;;;;;;;18.35;7.85;;;435.50;2355.20;;;;;;5003806;28;20084;-81
2021/09/08 05:29:52;;;;;;;17.33;8.23;;;435.50;2355.20;;;;;;5007237;28;20042;-80
2021/09/08 05:32:18;;;;;;;9.43;6.45;;;435.50;2355.20;;;;;;5008865;28;20042;-79
2021/09/08 05:34:44;;;;;;;15.38;8.02;;;435.70;2355.20;;;;;;5008611;28;20026;-79
2021/09/08 05:37:09;;;;;;;15.13;6.47;;;435.80;2355.20;;;;;;5008163;28;20493;-80
2021/09/08 05:39:35;;;;;;;11.40;6.43;;;435.90;2355.20;;;;;;5010494;28;20026;-79
2021/09/08 05:42:01;;;;;;;11.07;5.50;;;460.80;2380.80;;;;;;5010337;28;20469;-78
2021/09/08 05:44:26;;;;;;;13.25;6.95;;;460.90;2380.80;;;;;;5005030;28;20034;-85
2021/09/08 05:46:52;;;;;;;11.02;6.63;;;461.10;2380.80;;;;;;5004499;28;20034;-85
2021/09/08 05:49:18;;;;;;;15.95;7.43;;;461.10;2380.80;;;;;;5017976;28;20025;-85
2021/09/08 05:51:44;;;;;;;10.68;5.40;;;461.30;2380.80;;;;;;5021011;28;20037;-85
2021/09/08 05:54:10;;;;;;;12.18;4.97;;;461.40;2380.80;;;;;;5015106;28;20049;-84
2021/09/08 05:56:36;;;;;;;9.25;5.53;;;461.60;2380.80;;;;;;5003116;28;20025;-84
2021/09/08 05:59:02;;;;;;;14.48;5.80;;;461.70;2380.80;;;;;;5012752;28;20022;-84
2021/09/08 06:01:28;;;;;;;21.58;6.05;;;461.70;2380.80;;;;;;5002358;28;20061;-85
2021/09/08 06:03:54;;;;;;;20.52;8.57;;;486.70;2380.80;;;;;;5010319;28;20026;-84
2021/09/08 06:06:19;;;;;;;16.98;6.22;;;486.80;2380.80;;;;;;4996994;28;20495;-83
2021/09/08 06:08:45;;;;;;;12.60;5.38;;;487.00;2380.80;;;;;;5011097;28;20088;-84
2021/09/08 06:11:11;;;;;;;13.10;5.55;;;487.20;2380.80;;;;;;5007280;28;20033;-84
2021/09/08 06:13:37;;;;;;;8.77;5.15;;;487.30;2380.80;;;;;;5008904;28;20027;-83
2021/09/08 06:16:03;;;;;;;14.20;4.85;;;512.20;2380.80;;;;;;5012373;28;20025;-84
2021/09/08 06:18:29;;;;;;;10.57;4.20;;;512.30;2380.80;;;;;;5001639;28;20061;-84
2021/09/08 06:20:55;;;;;;;13.23;5.03;;;512.70;2380.80;;;;;;5008633;28;20042;-84
2021/09/08 06:23:21;;;;;;;14.82;5.20;;;537.60;2406.40;;;;;;5007530;28;20365;-84
2021/09/08 06:25:47;;;;;;;10.65;4.40;;;537.90;2406.40;;;;;;5012466;28;20026;-84
2021/09/08 06:28:12;;;;;;;12.55;5.38;;;538.10;2406.40;;;;;;5016840;28;20106;-83
2021/09/08 06:30:38;;;;;;;12.18;4.32;;;538.40;2406.40;;;;;;5008820;28;20180;-84
2021/09/08 06:33:04;;;;;;;21.33;6.55;;;563.20;2432.00;;;;;;5006026;28;20030;-84
2021/09/08 06:35:30;;;;;;;12.30;4.10;;;563.50;2432.00;;;;;;5028837;28;20021;-84
2021/09/08 06:37:55;;;;;;;13.52;5.15;;;563.70;2432.00;;;;;;5015552;28;20018;-84
2021/09/08 06:40:21;;;;;;;13.50;4.80;;;563.90;2432.00;;;;;;5043171;28;20053;-83
2021/09/08 06:42:47;;;;;;;15.15;5.07;;;564.00;2432.00;;;;;;5015690;28;20030;-84
2021/09/08 06:45:13;;;;;;;11.60;4.47;;;588.80;2432.00;;;;;;5011971;28;20053;-83
2021/09/08 06:47:39;;;;;;;10.98;4.10;;;589.00;2432.00;;;;;;5011743;28;20412;-85
2021/09/08 06:50:07;;;;;;;7.45;4.10;;;589.20;2432.00;;;;;;5013421;28;20105;-84
2021/09/08 06:52:33;;;;;;;13.10;3.95;;;589.10;2432.00;;;;;;5013909;28;20030;-85
2021/09/08 06:54:59;;;;;;;10.60;3.80;;;589.60;2432.00;;;;;;5013066;28;20393;-84
2021/09/08 06:57:25;;;;;;;6.22;3.92;;;614.40;2432.00;;;;;;5005909;28;20061;-85
2021/09/08 06:59:50;;;;;;;8.25;3.42;;;614.40;2406.40;;;;;;5013241;28;20477;-84
2021/09/08 08:21:25;;;;;;;8.98;4.50;;;717.10;1792.00;;;;;;4827632;26;20060;-75
2021/09/08 08:23:51;;;;;;;15.27;5.13;;;717.40;1766.40;;;;;;5051807;28;20743;-75
2021/09/08 08:26:18;;;;;;;14.20;7.78;;;717.40;1740.80;;;;;;5022953;28;20478;-75
2021/09/08 08:28:44;;;;;;;7.97;4.85;;;717.50;1740.80;;;;;;5025338;28;20030;-75
2021/09/08 08:31:11;;;;;;;8.52;4.50;;;742.40;1715.20;;;;;;5033151;28;20032;-75
2021/09/08 08:33:36;;;;;;;9.80;4.35;;;742.40;1689.60;;;;;;5050877;28;20028;-76
2021/09/08 08:36:02;;;;;;;12.80;4.50;;;742.50;1689.60;;;;;;5051448;28;20033;-76
2021/09/08 08:38:28;;;;;;;13.73;5.65;;;742.70;1638.40;;;;;;5045740;28;20049;-76
2021/09/08 08:40:54;;;;;;;7.28;4.13;;;743.00;1664.00;;;;;;5031794;28;20390;-76
2021/09/08 08:43:20;;;;;;;9.32;3.95;;;743.10;1587.20;;;;;;5049722;28;20037;-76
2021/09/08 08:45:46;;;;;;;16.83;7.93;;;743.00;1587.20;;;;;;5024584;28;20383;-76
2021/09/08 08:48:12;;;;;;;10.30;6.75;;;743.20;1510.40;;;;;;5045684;28;20025;-76
2021/09/08 08:50:38;;;;;;;11.57;6.53;;;768.10;1484.80;;;;;;5050923;28;20029;-76
2021/09/08 08:53:04;;;;;;;11.50;5.78;;;768.10;1459.20;;;;;;5031627;28;20036;-76
2021/09/08 08:55:30;;;;;;;16.33;6.20;;;768.20;1459.20;;;;;;5013953;28;20052;-79
2021/09/08 08:57:58;;;;;;;9.77;5.45;;;768.20;1459.20;;;;;;5041425;28;20052;-78
2021/09/08 09:00:23;;;;;;;13.18;9.07;;;768.50;1433.60;;;;;;5015491;28;20483;-75
2021/09/08 09:02:51;;;;;;;10.40;6.30;;;768.20;1408.00;;;;;;5018831;28;20056;-75
2021/09/08 09:06:02;;;;;;;20.02;12.02;;;768.50;1382.40;;;;;;5018700;28;20122;-76
2021/09/08 09:08:33;;;;;;;7.82;5.38;;;768.40;1356.80;;;;;;4934031;29;20113;-75
2021/09/08 09:10:59;;;;;;;10.20;6.00;;;768.70;1331.20;;;;;;4937287;29;20771;-75
2021/09/08 09:13:33;;;;;;;9.85;6.28;;;768.50;1331.20;;;;;;4948964;28;20035;-75
2021/09/08 09:16:09;;;;;;;11.95;6.28;;;768.60;1356.80;;;;;;4949596;28;20039;-75
2021/09/08 09:18:44;;;;;;;11.70;6.22;;;793.70;1356.80;;;;;;4953216;28;20031;-77
2021/09/08 09:21:13;;;;;;;8.07;5.07;;;793.90;1356.80;;;;;;4944897;28;20091;-76
2021/09/08 09:23:50;;;;;;;17.08;9.68;;;794.30;1305.60;;;;;;4947107;29;20035;-78
2021/09/08 09:26:24;;;;;;;10.68;7.22;;;819.20;1305.60;;;;;;4944238;28;20027;-77
2021/09/08 09:28:51;;;;;;;15.80;5.80;;;819.40;1305.60;;;;;;4936487;29;20057;-76
2021/09/08 09:31:21;;;;;;;12.05;7.85;;;819.80;1280.00;;;;;;4950288;28;20032;-77
2021/09/08 09:33:56;;;;;;;18.55;10.70;;;819.90;1254.40;;;;;;4933940;29;20034;-77
2021/09/08 09:36:30;;;;;;;20.17;13.55;;;819.70;1254.40;;;;;;4950154;29;20494;-77
2021/09/08 09:38:56;;;;;;;15.10;9.10;;;819.90;1228.80;;;;;;4950016;29;20035;-77
2021/09/08 09:41:35;;;;;;;6.75;4.50;;;844.90;1228.80;;;;;;4944436;28;20441;-76
2021/09/08 09:44:16;;;;;;;25.63;15.95;;;819.90;1228.80;;;;;;5045190;28;20025;-77
2021/09/08 09:46:45;;;;;;;13.02;7.93;;;844.80;1228.80;;;;;;5031985;28;20025;-77
2021/09/08 09:49:13;;;;;;;12.00;7.15;;;845.20;1228.80;;;;;;5041192;28;20084;-76
2021/09/08 09:51:40;;;;;;;11.68;8.68;;;844.80;1228.80;;;;;;5035432;28;20131;-77
2021/09/08 09:54:06;;;;;;;13.65;9.30;;;845.00;1203.20;;;;;;5042428;28;20020;-79
2021/09/08 09:56:32;;;;;;;6.03;4.22;;;845.20;1203.20;;;;;;5056916;28;20025;-77
2021/09/08 09:58:58;;;;;;;7.00;4.20;;;845.10;1228.80;;;;;;5042568;28;20017;-78
2021/09/08 10:01:25;;;;;;;13.63;8.20;;;845.30;1228.80;;;;;;5053533;28;20475;-77
2021/09/08 10:03:52;;;;;;;6.15;4.07;;;845.40;1203.20;;;;;;5035048;28;20032;-77
2021/09/08 10:06:18;;;;;;;12.55;6.97;;;845.40;1177.60;;;;;;5035671;28;20049;-78
2021/09/08 10:08:49;;;;;;;11.65;8.15;;;845.50;1152.00;;;;;;5040284;28;20421;-78
2021/09/08 10:11:22;;;;;;;6.15;3.95;;;845.70;1177.60;;;;;;5036203;28;20021;-78
2021/09/08 10:14:00;;;;;;;6.47;5.28;;;870.40;1126.40;;;;;;5052630;28;20021;-77
2021/09/08 10:16:27;;;;;;;9.55;5.95;;;870.40;1126.40;;;;;;5052821;28;20021;-78
2021/09/08 10:18:53;;;;;;;8.38;4.93;;;870.70;1126.40;;;;;;5034974;28;20065;-78
2021/09/08 10:21:20;;;;;;;7.03;3.72;;;870.90;1100.80;;;;;;5052535;28;20063;-82
2021/09/08 10:23:59;;;;;;;9.02;6.03;;;870.90;1126.40;;;;;;5035409;28;20480;-81
2021/09/08 10:26:30;;;;;;;11.95;6.88;;;870.50;1126.40;;;;;;5053631;28;20033;-83
2021/09/08 10:29:06;;;;;;;12.02;6.93;;;870.90;1126.40;;;;;;5034316;28;20064;-85
2021/09/08 10:31:51;;;;;;;16.40;9.40;;;871.00;1126.40;;;;;;5045698;28;20128;-84
2021/09/08 10:34:20;;;;;;;10.25;8.18;;;870.80;1100.80;;;;;;5033997;28;20043;-83
2021/09/08 10:36:46;;;;;;;10.70;7.10;;;871.30;1100.80;;;;;;5035913;28;20029;-83
2021/09/08 10:39:14;;;;;;;7.72;5.38;;;896.00;1100.80;;;;;;5050938;28;20171;-83
2021/09/08 10:41:53;;;;;;;9.20;4.55;;;896.20;1100.80;;;;;;5035776;28;20029;-83
2021/09/08 10:44:50;;;;;;;8.43;4.97;;;871.10;1100.80;;;;;;5033680;28;20033;-83
2021/09/08 10:47:37;;;;;;;10.43;5.75;;;896.40;1075.20;;;;;;5027851;28;20536;-84
2021/09/08 10:50:07;;;;;;;10.35;5.13;;;896.70;1075.20;;;;;;5032510;28;21610;-84
2021/09/08 10:52:38;;;;;;;10.90;5.47;;;896.60;1049.60;;;;;;5049316;28;20029;-84
2021/09/08 10:55:15;;;;;;;13.18;5.68;;;896.50;1049.60;;;;;;5046758;28;20029;-85
2021/09/08 10:57:41;;;;;;;15.25;6.45;;;896.40;1075.20;;;;;;5035269;28;20029;-84
2021/09/08 11:00:09;;;;;;;8.93;5.95;;;896.70;1049.60;;;;;;5026513;28;20071;-84
2021/09/08 11:02:42;;;;;;;6.72;5.35;;;921.90;1049.60;;;;;;5035352;28;20128;-85
2021/09/08 11:05:09;;;;;;;8.85;4.47;;;896.40;1049.60;;;;;;5035038;28;20430;-85
2021/09/08 11:07:42;;;;;;;6.78;4.78;;;896.80;1049.60;;;;;;5053375;28;20059;-84
2021/09/08 11:10:09;;;;;;;5.55;4.30;;;922.10;1049.60;;;;;;5035272;28;20063;-84
2021/09/08 11:12:45;;;;;;;8.38;4.57;;;922.10;1049.60;;;;;;5029060;28;20143;-85
2021/09/08 11:15:11;;;;;;;7.43;5.05;;;922.30;1024.00;;;;;;5039433;28;20107;-86
2021/09/08 11:17:37;;;;;;;5.80;3.85;;;947.30;998.40;;;;;;5032220;28;20092;-85
2021/09/08 11:20:04;;;;;;;7.43;3.78;;;922.00;1024.00;;;;;;5052445;28;20045;-86
2021/09/08 11:22:30;;;;;;;6.07;3.92;;;921.80;1049.60;;;;;;5035295;28;20506;-85
2021/09/08 11:25:03;;;;;;;5.32;3.85;;;922.00;1024.00;;;;;;5043314;28;20056;-85
2021/09/08 11:27:29;;;;;;;10.52;3.88;;;947.20;1024.00;;;;;;5035250;28;20028;-84
2021/09/08 11:30:13;;;;;;;6.00;4.05;;;922.40;1024.00;;;;;;5028198;28;20542;-85
2021/09/08 11:32:53;;;;;;;8.30;3.60;;;922.10;1024.00;;;;;;5036473;28;20476;-86
2021/09/08 11:35:45;;;;;;;7.88;3.97;;;922.50;998.40;;;;;;5024923;28;20135;-84
2021/09/08 11:38:21;;;;;;;5.78;3.65;;;947.70;972.80;;;;;;5035060;28;20475;-85
2021/09/08 11:40:48;;;;;;;8.43;4.35;;;947.70;972.80;;;;;;5032243;28;20563;-84
2021/09/08 11:43:28;;;;;;;8.15;4.38;;;947.90;947.20;;;;;;5017758;28;20029;-85
2021/09/08 11:45:54;;;;;;;7.10;3.58;;;972.80;972.80;;;;;;5031841;28;20036;-87
2021/09/08 11:48:30;;;;;;;5.00;3.50;;;947.80;947.20;;;;;;5018193;28;20021;-86
2021/09/08 11:51:06;;;;;;;5.30;3.55;;;947.60;947.20;;;;;;5032794;28;20026;-85
2021/09/08 11:53:33;;;;;;;6.65;3.40;;;947.70;947.20;;;;;;5030974;28;20396;-85
2021/09/08 11:56:11;;;;;;;7.70;4.18;;;972.80;972.80;;;;;;5035920;28;20075;-85
2021/09/08 11:58:38;;;;;;;6.43;3.63;;;973.10;972.80;;;;;;5053006;28;20092;-85
2021/09/08 12:01:09;;;;;;;4.82;3.58;;;972.90;972.80;;;;;;5027024;28;20035;-86
2021/09/08 12:03:43;;;;;;;7.15;3.67;;;947.30;921.60;;;;;;5052600;28;20131;-86
2021/09/08 12:06:15;;;;;;;5.93;4.00;;;947.80;921.60;;;;;;5034835;28;20063;-85
2021/09/08 12:09:00;;;;;;;9.48;4.00;;;947.70;947.20;;;;;;5034726;28;20115;-87
2021/09/08 12:11:53;;;;;;;6.50;3.78;;;947.80;947.20;;;;;;5035041;28;20029;-86
2021/09/08 12:14:24;;;;;;;11.05;5.78;;;947.90;947.20;;;;;;5015935;28;20079;-85
2021/09/08 12:17:00;;;;;;;10.70;7.63;;;947.90;921.60;;;;;;5030229;28;20102;-84
2021/09/08 12:19:27;;;;;;;9.70;4.18;;;972.80;947.20;;;;;;5035307;28;20542;-84
2021/09/08 12:22:02;;;;;;;17.15;12.52;;;973.00;921.60;;;;;;5053739;28;20457;-85
2021/09/08 12:24:30;;;;;;;10.57;6.32;;;973.60;921.60;;;;;;5030965;28;20032;-87
2021/09/08 12:26:57;;;;;;;9.05;7.57;;;973.20;947.20;;;;;;5060221;28;20454;-85
2021/09/08 12:29:24;;;;;;;10.98;4.65;;;973.30;921.60;;;;;;5063354;28;20108;-85
2021/09/08 12:32:00;;;;;;;9.70;4.15;;;973.20;921.60;;;;;;5046626;28;20480;-86
2021/09/08 12:34:43;;;;;;;8.20;5.18;;;973.20;921.60;;;;;;5030493;28;20017;-86
2021/09/08 12:37:09;;;;;;;6.32;4.30;;;973.00;921.60;;;;;;5024854;28;20025;-86
2021/09/08 12:39:49;;;;;;;8.57;4.05;;;948.10;896.00;;;;;;5035761;28;20483;-84
2021/09/08 12:42:25;;;;;;;7.80;4.25;;;973.10;921.60;;;;;;5060355;28;20104;-84
2021/09/08 12:44:53;;;;;;;13.80;8.00;;;947.60;947.20;;;;;;5030309;28;20061;-84
2021/09/08 12:47:21;;;;;;;14.18;7.63;;;947.70;921.60;;;;;;5049766;28;20021;-85
2021/09/08 12:49:48;;;;;;;7.07;3.55;;;972.80;947.20;;;;;;5022747;28;20086;-84
2021/09/08 12:52:20;;;;;;;4.97;3.22;;;947.90;947.20;;;;;;5045509;28;20036;-78
2021/09/08 12:54:46;;;;;;;7.28;3.58;;;948.10;921.60;;;;;;5047501;28;20064;-79
2021/09/08 12:57:13;;;;;;;8.15;4.57;;;947.90;921.60;;;;;;5026000;28;20027;-78
2021/09/08 12:59:40;;;;;;;7.57;3.70;;;948.10;921.60;;;;;;5025588;28;20060;-77
2021/09/08 13:02:08;;;;;;;5.82;3.63;;;973.00;947.20;;;;;;5024041;28;20048;-77
2021/09/08 13:04:34;;;;;;;5.80;3.90;;;948.10;921.60;;;;;;5044462;28;20104;-77
2021/09/08 13:07:02;;;;;;;6.18;3.28;;;948.00;947.20;;;;;;5044771;28;20032;-77
2021/09/08 13:09:29;;;;;;;7.70;4.57;;;948.10;921.60;;;;;;5040809;28;20021;-77
2021/09/08 13:11:55;;;;;;;7.07;3.85;;;948.10;921.60;;;;;;5019858;28;20024;-77
2021/09/08 13:14:21;;;;;;;13.23;4.15;;;972.90;947.20;;;;;;5029925;28;20067;-78
2021/09/08 13:16:47;;;;;;;7.18;4.20;;;948.00;921.60;;;;;;5063853;28;20029;-77
2021/09/08 13:19:13;;;;;;;9.40;4.90;;;973.00;947.20;;;;;;5056746;28;20025;-77
2021/09/08 13:21:40;;;;;;;4.45;3.58;;;947.50;947.20;;;;;;5031213;28;20414;-77
2021/09/08 13:24:08;;;;;;;6.88;5.47;;;947.20;947.20;;;;;;5058579;28;20029;-77
2021/09/08 13:26:35;;;;;;;10.20;5.25;;;947.30;947.20;;;;;;5030260;28;20483;-77
2021/09/08 13:29:01;;;;;;;7.68;4.88;;;947.40;947.20;;;;;;5047417;28;20479;-77
2021/09/08 13:31:30;;;;;;;13.02;6.32;;;947.20;947.20;;;;;;5025558;28;20045;-77
2021/09/08 13:33:57;;;;;;;7.20;4.63;;;922.30;947.20;;;;;;5046318;28;20025;-77
2021/09/08 13:36:22;;;;;;;9.38;5.47;;;922.10;947.20;;;;;;5049277;28;20049;-76